Aviation Digital Data Service (ADDS)

Output produced by METARs form (1103 UTC 28 August 2014)
found at http://aviationweather.gov/adds/metars/
 
KLFT 281053Z 00000KT 10SM CLR 24/23 A2996 RMK AO2 SLP144 T02440233